createdAt,value
2022-12-15T00:02:19.280Z,96366.53
2022-12-15T00:05:05.106Z,96377.78
2022-12-15T00:07:50.951Z,96359.84
2022-12-15T00:10:36.700Z,96347.31
2022-12-15T00:13:28.434Z,96361.91
2022-12-15T00:16:14.609Z,96365.09
2022-12-15T00:19:00.272Z,96360.84
2022-12-15T00:21:45.603Z,96339.34
2022-12-15T00:24:31.220Z,96353.78
2022-12-15T00:27:16.840Z,96365.84
2022-12-15T00:30:02.311Z,96343.47
2022-12-15T00:32:49.773Z,96334.53
2022-12-15T00:35:35.223Z,96333.16
2022-12-15T00:38:46.236Z,96313.13
2022-12-15T00:41:17.800Z,96311.72
2022-12-15T00:43:45.145Z,96288.09
2022-12-15T00:46:30.911Z,96324.78
2022-12-15T00:48:58.685Z,96316.22
2022-12-15T00:51:44.246Z,96309.38
2022-12-15T00:54:29.803Z,96312.50
2022-12-15T00:57:15.724Z,96334.38
2022-12-15T01:00:01.133Z,96335.28
2022-12-15T01:02:46.650Z,96329.38
2022-12-15T01:05:32.180Z,96352.25
2022-12-15T01:08:19.179Z,96328.59
2022-12-15T01:11:04.604Z,96329.16
2022-12-15T01:13:50.182Z,96314.47
2022-12-15T01:16:36.440Z,96298.91
2022-12-15T01:19:22.092Z,96298.13
2022-12-15T01:21:49.850Z,96306.13
2022-12-15T01:24:16.960Z,96311.13
2022-12-15T01:26:43.807Z,96300.69
2022-12-15T01:29:10.693Z,96323.09
2022-12-15T01:31:37.673Z,96318.25
2022-12-15T01:34:04.885Z,96318.16
2022-12-15T01:36:31.716Z,96312.06
2022-12-15T01:42:37.732Z,96317.72
2022-12-15T01:45:29.413Z,96312.66
2022-12-15T01:48:03.701Z,96301.69
2022-12-15T01:50:33.312Z,96285.84
2022-12-15T01:53:00.284Z,96275.59
2022-12-15T01:55:29.771Z,96272.16
2022-12-15T01:58:03.667Z,96285.63
2022-12-15T02:00:31.027Z,96278.38
2022-12-15T02:03:00.763Z,96293.44
2022-12-15T02:05:30.245Z,96287.53
2022-12-15T02:07:57.718Z,96294.72
2022-12-15T02:10:32.553Z,96298.13
2022-12-15T02:13:20.059Z,96288.75
2022-12-15T02:16:01.974Z,96296.78
2022-12-15T02:18:50.906Z,96298.91
2022-12-15T02:21:30.472Z,96278.13
2022-12-15T02:24:21.641Z,96313.84
2022-12-15T02:27:13.041Z,96315.31
2022-12-15T02:30:07.731Z,96306.28
2022-12-15T02:32:49.989Z,96311.75
2022-12-15T02:35:40.212Z,96306.28
2022-12-15T02:38:09.523Z,96282.59
2022-12-15T02:40:37.531Z,96270.44
2022-12-15T02:43:07.910Z,96269.66
2022-12-15T02:46:01.800Z,96269.81
2022-12-15T02:48:47.279Z,96274.84
2022-12-15T02:51:51.482Z,96288.06
2022-12-15T02:54:36.770Z,96276.66
2022-12-15T02:57:36.851Z,96284.16
2022-12-15T03:00:12.170Z,96273.69
2022-12-15T03:02:43.643Z,96284.06
2022-12-15T03:05:14.100Z,96283.44
2022-12-15T03:07:42.812Z,96266.22
2022-12-15T03:10:11.896Z,96296.22
2022-12-15T03:12:40.250Z,96309.28
2022-12-15T03:15:08.194Z,96313.75
2022-12-15T03:17:35.030Z,96308.41
2022-12-15T03:20:02.006Z,96305.75
2022-12-15T03:22:31.728Z,96295.00
2022-12-15T03:24:58.568Z,96282.78
2022-12-15T03:27:25.595Z,96274.97
2022-12-15T03:29:53.448Z,96226.19
2022-12-15T03:32:20.515Z,96245.09
2022-12-15T03:34:47.445Z,96258.47
2022-12-15T03:37:14.441Z,96250.91
2022-12-15T03:39:41.350Z,96234.50
2022-12-15T03:42:08.237Z,96221.00
2022-12-15T03:44:35.133Z,96215.00
2022-12-15T03:47:03.805Z,96225.50
2022-12-15T03:49:30.902Z,96217.16
2022-12-15T03:51:57.751Z,96222.28
2022-12-15T03:54:25.231Z,96221.28
2022-12-15T03:56:52.356Z,96224.66
2022-12-15T03:59:19.398Z,96228.63
2022-12-15T04:01:49.309Z,96220.66
2022-12-15T04:04:16.513Z,96227.22
2022-12-15T04:06:43.485Z,96204.59
2022-12-15T04:09:10.342Z,96226.91
2022-12-15T04:11:37.153Z,96220.59
2022-12-15T04:14:04.031Z,96228.97
2022-12-15T04:16:31.118Z,96229.84
2022-12-15T04:19:16.912Z,96240.81
2022-12-15T04:21:43.806Z,96251.78
2022-12-15T04:24:29.415Z,96242.59
2022-12-15T04:27:14.723Z,96238.66
2022-12-15T04:30:00.184Z,96241.88
2022-12-15T04:32:45.785Z,96228.28
2022-12-15T04:35:35.586Z,96252.72
2022-12-15T04:38:21.246Z,96247.19
2022-12-15T04:41:06.638Z,96238.66
2022-12-15T04:43:51.948Z,96234.19
2022-12-15T04:46:37.542Z,96212.66
2022-12-15T04:49:23.131Z,96222.84
2022-12-15T04:52:08.306Z,96217.31
2022-12-15T04:54:53.461Z,96231.31
2022-12-15T04:57:38.789Z,96206.91
2022-12-15T05:00:24.738Z,96241.03
2022-12-15T05:03:13.763Z,96244.47
2022-12-15T05:06:03.235Z,96252.81
2022-12-15T05:08:50.121Z,96257.28
2022-12-15T05:11:35.768Z,96274.00
2022-12-15T05:14:21.492Z,96279.00
2022-12-15T05:17:06.913Z,96270.59
2022-12-15T05:19:52.075Z,96272.63
2022-12-15T05:22:37.422Z,96253.94
2022-12-15T05:25:23.009Z,96282.81
2022-12-15T05:28:08.322Z,96260.63
2022-12-15T05:30:53.997Z,96278.25
2022-12-15T05:33:21.022Z,96283.50
2022-12-15T05:35:48.021Z,96289.03
2022-12-15T05:38:14.901Z,96275.59
2022-12-15T05:40:42.142Z,96282.78
2022-12-15T05:43:08.960Z,96284.88
2022-12-15T05:45:35.802Z,96295.00
2022-12-15T05:48:02.732Z,96296.84
2022-12-15T05:50:29.626Z,96283.50
2022-12-15T05:52:58.614Z,96268.97
2022-12-15T05:55:25.477Z,96286.31
2022-12-15T05:57:53.893Z,96289.09
2022-12-15T06:00:21.175Z,96281.72
2022-12-15T06:02:48.220Z,96291.97
2022-12-15T06:05:17.409Z,96295.56
2022-12-15T06:07:44.333Z,96291.44
2022-12-15T06:10:11.702Z,96306.66
2022-12-15T06:12:39.773Z,96312.63
2022-12-15T06:15:07.005Z,96310.94
2022-12-15T06:17:33.838Z,96311.28
2022-12-15T06:20:00.773Z,96323.56
2022-12-15T06:22:30.745Z,96323.50
2022-12-15T06:24:57.593Z,96320.78
2022-12-15T06:27:24.704Z,96328.31
2022-12-15T06:29:51.709Z,96306.78
2022-12-15T06:32:18.595Z,96328.63
2022-12-15T06:34:45.411Z,96340.94
2022-12-15T06:37:12.907Z,96339.59
2022-12-15T06:39:39.890Z,96344.41
2022-12-15T06:42:06.752Z,96335.44
2022-12-15T06:44:33.649Z,96340.53
2022-12-15T06:47:00.616Z,96360.81
2022-12-15T06:49:27.582Z,96344.22
2022-12-15T06:51:54.459Z,96368.72
2022-12-15T06:54:21.353Z,96374.47
2022-12-15T06:56:50.097Z,96376.25
2022-12-15T06:59:17.195Z,96344.53
2022-12-15T07:01:44.140Z,96403.22
2022-12-15T07:04:11.645Z,96387.19
2022-12-15T07:06:39.846Z,96394.13
2022-12-15T07:09:08.520Z,96387.66
2022-12-15T07:11:36.094Z,96417.03
2022-12-15T07:14:03.308Z,96415.84
2022-12-15T07:16:31.321Z,96412.25
2022-12-15T07:18:58.380Z,96422.94
2022-12-15T07:21:25.358Z,96405.66
2022-12-15T07:23:55.987Z,96409.69
2022-12-15T07:26:23.734Z,96410.47
2022-12-15T07:28:50.742Z,96402.53
2022-12-15T07:31:17.984Z,96411.59
2022-12-15T07:33:45.017Z,96413.56
2022-12-15T07:36:12.304Z,96417.91
2022-12-15T07:38:39.247Z,96425.56
2022-12-15T07:41:08.329Z,96434.25
2022-12-15T07:43:36.205Z,96420.50
2022-12-15T07:46:04.654Z,96430.38
2022-12-15T07:48:31.762Z,96419.34
2022-12-15T10:34:10.566Z,96468.22
2022-12-15T10:36:37.734Z,96470.78
2022-12-15T10:39:04.639Z,96456.63
2022-12-15T10:41:33.260Z,96473.00
2022-12-15T10:44:02.740Z,96470.22
2022-12-15T10:46:30.704Z,96466.56
2022-12-15T10:49:00.127Z,96470.56
2022-12-15T10:51:32.687Z,96461.19
2022-12-15T10:54:03.423Z,96464.63
2022-12-15T10:56:33.905Z,96462.84
2022-12-15T10:59:04.658Z,96467.72
2022-12-15T11:01:34.219Z,96465.16
2022-12-15T11:04:02.926Z,96446.09
2022-12-15T11:06:33.465Z,96465.91
2022-12-15T11:09:28.692Z,96467.56
2022-12-15T11:12:14.484Z,96441.41
2022-12-15T11:14:45.705Z,96455.41
2022-12-15T11:17:18.683Z,96447.72
2022-12-15T11:19:49.223Z,96456.50
2022-12-15T11:22:50.239Z,96457.72
2022-12-15T11:25:43.142Z,96457.97
2022-12-15T11:28:16.556Z,96471.06
2022-12-15T11:30:47.699Z,96456.41
2022-12-15T11:33:15.377Z,96466.44
2022-12-15T11:36:00.531Z,96476.78
2022-12-15T11:38:41.106Z,96478.53
2022-12-15T11:41:34.469Z,96442.31
2022-12-15T11:44:25.316Z,96478.69
2022-12-15T11:46:58.462Z,96480.25
2022-12-15T11:50:00.857Z,96449.09
2022-12-15T11:53:05.185Z,96487.41
2022-12-15T11:55:47.057Z,96489.53
2022-12-15T11:58:44.151Z,96481.84
2022-12-15T12:01:43.109Z,96488.72
2022-12-15T12:04:23.594Z,96477.97
2022-12-15T12:07:19.927Z,96474.97
2022-12-15T12:10:17.775Z,96491.69
2022-12-15T12:12:54.431Z,96501.88
2022-12-15T12:15:46.491Z,96499.84
2022-12-15T12:18:27.321Z,96488.34
2022-12-15T12:21:09.128Z,96502.88
2022-12-15T12:24:00.557Z,96509.88
2022-12-15T12:26:28.626Z,96511.09
2022-12-15T12:29:06.630Z,96514.69
2022-12-15T12:31:45.865Z,96523.38
2022-12-15T12:34:52.751Z,96522.47
2022-12-15T12:38:09.919Z,96530.63
2022-12-15T12:41:05.243Z,96530.91
2022-12-15T12:43:35.839Z,96521.00
2022-12-15T12:46:15.149Z,96541.66
2022-12-15T12:48:48.850Z,96545.25
2022-12-15T12:51:33.299Z,96540.63
2022-12-15T12:54:00.791Z,96552.66
2022-12-15T12:56:38.868Z,96557.59
2022-12-15T12:59:28.912Z,96549.94
2022-12-15T13:02:15.864Z,96562.47
2022-12-15T13:04:49.738Z,96542.41
2022-12-15T13:07:41.015Z,96571.19
2022-12-15T13:10:07.906Z,96566.84
2022-12-15T13:13:15.430Z,96575.22
2022-12-15T13:15:46.138Z,96583.69
2022-12-15T13:18:18.100Z,96582.72
2022-12-15T13:20:48.866Z,96560.81
2022-12-15T13:23:23.626Z,96599.03
2022-12-15T13:25:56.614Z,96612.00
2022-12-15T13:28:39.260Z,96610.50
2022-12-15T13:31:21.721Z,96620.63
2022-12-15T13:33:55.064Z,96617.28
2022-12-15T13:36:37.454Z,96630.38
2022-12-15T13:39:17.508Z,96633.88
2022-12-15T13:42:15.427Z,96642.25
2022-12-15T13:44:45.421Z,96640.88
2022-12-15T13:47:20.378Z,96646.97
2022-12-15T13:49:57.369Z,96644.84
2022-12-15T13:53:17.233Z,96643.16
2022-12-15T13:55:39.079Z,96642.75
2022-12-15T13:58:14.829Z,96648.63
2022-12-15T14:00:51.012Z,96641.28
2022-12-15T14:03:17.980Z,96629.41
2022-12-15T14:05:57.265Z,96637.91
2022-12-15T14:08:28.598Z,96634.34
2022-12-15T14:13:52.317Z,96619.13
2022-12-15T14:16:23.003Z,96630.50
2022-12-15T14:19:12.882Z,96636.78
2022-12-15T14:21:39.851Z,96621.41
2022-12-15T14:24:40.699Z,96648.75
2022-12-15T14:27:08.025Z,96642.31
2022-12-15T14:29:35.111Z,96649.09
2022-12-15T14:32:02.280Z,96643.53
2022-12-15T14:34:33.747Z,96651.56
2022-12-15T14:37:05.910Z,96647.94
2022-12-15T14:39:40.122Z,96665.25
2022-12-15T14:42:07.727Z,96652.72
2022-12-15T14:44:43.893Z,96660.69
2022-12-15T14:47:27.036Z,96648.97
2022-12-15T14:49:57.083Z,96679.41
2022-12-15T14:52:29.011Z,96673.63
2022-12-15T14:54:59.295Z,96664.34
2022-12-15T14:57:43.231Z,96683.16
2022-12-15T15:00:22.062Z,96679.47
2022-12-15T15:02:49.335Z,96680.66
2022-12-15T15:05:27.311Z,96687.50
2022-12-15T15:07:57.312Z,96682.31
2022-12-15T15:10:29.308Z,96685.91
2022-12-15T15:12:56.396Z,96690.16
2022-12-15T15:15:29.605Z,96696.28
2022-12-15T15:18:00.311Z,96696.28
2022-12-15T15:20:30.450Z,96706.06
2022-12-15T15:23:03.178Z,96710.25
2022-12-15T15:25:39.258Z,96710.91
2022-12-15T15:28:23.190Z,96709.91
2022-12-15T15:30:50.037Z,96736.47
2022-12-15T15:33:19.421Z,96727.56
2022-12-15T15:35:51.517Z,96732.13
2022-12-15T15:38:29.472Z,96712.66
2022-12-15T15:41:00.154Z,96740.22
2022-12-15T15:43:28.689Z,96748.66
2022-12-15T15:46:07.254Z,96746.38
2022-12-15T15:48:38.119Z,96746.66
2022-12-15T15:51:05.789Z,96751.84
2022-12-15T15:53:35.548Z,96750.41
2022-12-15T15:56:06.675Z,96743.91
2022-12-15T15:58:35.268Z,96753.75
2022-12-15T16:01:04.767Z,96764.03
2022-12-15T16:03:35.399Z,96756.75
2022-12-15T16:06:04.280Z,96775.53
2022-12-15T16:08:35.630Z,96782.97
2022-12-15T16:11:03.129Z,96774.00
2022-12-15T16:13:29.965Z,96782.34
2022-12-15T16:15:56.964Z,96806.94
2022-12-15T16:18:23.863Z,96811.88
2022-12-15T16:20:52.105Z,96807.25
2022-12-15T16:23:26.363Z,96788.75
2022-12-15T16:25:58.450Z,96798.44
2022-12-15T16:28:28.478Z,96799.31
2022-12-15T16:30:58.371Z,96801.06
2022-12-15T16:33:25.431Z,96803.72
2022-12-15T16:35:53.527Z,96804.28
2022-12-15T16:38:26.906Z,96816.00
2022-12-15T16:40:55.558Z,96827.31
2022-12-15T16:43:24.943Z,96814.53
2022-12-15T16:45:54.014Z,96829.66
2022-12-15T16:48:21.289Z,96840.06
2022-12-15T16:50:58.285Z,96845.63
2022-12-15T16:53:29.388Z,96850.28
2022-12-15T16:55:58.864Z,96852.41
2022-12-15T16:58:27.787Z,96852.75
2022-12-15T17:00:55.201Z,96863.00
2022-12-15T17:03:25.895Z,96862.88
2022-12-15T17:06:02.070Z,96855.41
2022-12-15T17:08:44.221Z,96867.47
2022-12-15T17:11:19.133Z,96876.25
2022-12-15T17:13:51.093Z,96877.38
2022-12-15T17:16:19.620Z,96881.66
2022-12-15T17:18:46.804Z,96840.28
2022-12-15T17:21:17.359Z,96884.75
2022-12-15T17:23:46.599Z,96882.50
2022-12-15T17:26:28.124Z,96879.34
2022-12-15T17:28:58.679Z,96895.03
2022-12-15T17:31:31.548Z,96901.69
2022-12-15T17:34:02.705Z,96893.53
2022-12-15T17:36:29.667Z,96880.94
2022-12-15T17:39:01.292Z,96896.66
2022-12-15T17:41:57.967Z,96902.63
2022-12-15T17:44:38.617Z,96902.19
2022-12-15T17:47:08.853Z,96899.34
2022-12-15T17:49:38.021Z,96905.69
2022-12-15T17:52:27.316Z,96893.63
2022-12-15T17:54:55.599Z,96908.38
2022-12-15T17:57:22.532Z,96913.25
2022-12-15T17:59:49.411Z,96902.19
2022-12-15T18:02:16.440Z,96911.81
2022-12-15T18:04:44.208Z,96910.09
2022-12-15T18:07:18.194Z,96916.31
2022-12-15T18:09:45.382Z,96911.69
2022-12-15T18:12:38.577Z,96904.25
2022-12-15T18:15:19.436Z,96912.00
2022-12-15T18:17:46.661Z,96888.41
2022-12-15T18:20:13.925Z,96921.09
2022-12-15T18:22:41.391Z,96890.72
2022-12-15T18:25:17.549Z,96918.53
2022-12-15T18:27:44.606Z,96923.69
2022-12-15T18:30:16.604Z,96928.75
2022-12-15T18:32:45.143Z,96937.28
2022-12-15T18:35:22.621Z,96938.94
2022-12-15T18:37:51.746Z,96936.56
2022-12-15T18:40:22.040Z,96929.78
2022-12-15T18:42:49.359Z,96918.16
2022-12-15T18:45:22.101Z,96929.66
2022-12-15T18:47:50.503Z,96942.47
2022-12-15T18:50:21.928Z,96934.91
2022-12-15T18:53:02.032Z,96937.88
2022-12-15T18:55:31.344Z,96944.13
2022-12-15T18:58:01.899Z,96943.91
2022-12-15T19:00:30.432Z,96944.75
2022-12-15T19:03:00.260Z,96947.72
2022-12-15T19:05:28.842Z,96943.97
2022-12-15T19:08:02.159Z,96958.66
2022-12-15T19:10:32.034Z,96947.63
2022-12-15T19:12:59.357Z,96952.94
2022-12-15T19:15:26.689Z,96954.50
2022-12-15T19:18:12.451Z,96964.38
2022-12-15T19:20:57.903Z,96948.19
2022-12-15T19:23:24.944Z,96952.38
2022-12-15T19:25:53.367Z,96956.34
2022-12-15T19:28:23.064Z,96963.28
2022-12-15T19:30:50.931Z,96968.13
2022-12-15T19:33:18.792Z,96969.53
2022-12-15T19:35:50.882Z,96967.28
2022-12-15T19:38:25.496Z,96969.50
2022-12-15T19:40:53.686Z,96962.00
2022-12-15T19:43:23.430Z,96965.47
2022-12-15T19:45:54.945Z,96976.88
2022-12-15T19:48:24.123Z,96968.53
2022-12-15T19:50:52.487Z,96971.81
2022-12-15T19:53:28.572Z,96965.22
2022-12-15T19:55:58.346Z,96996.25
2022-12-15T19:58:29.950Z,96989.78
2022-12-15T20:01:04.679Z,96988.69
2022-12-15T20:03:32.710Z,96954.50
2022-12-15T20:06:01.813Z,96989.72
2022-12-15T20:08:34.544Z,96974.75
2022-12-15T20:11:01.498Z,96976.16
2022-12-15T20:13:28.494Z,96995.63
2022-12-15T20:15:55.440Z,96997.44
2022-12-15T20:18:22.545Z,97001.78
2022-12-15T20:20:49.916Z,96996.47
2022-12-15T20:23:26.058Z,96990.84
2022-12-15T20:25:54.150Z,96971.28
2022-12-15T20:28:29.504Z,97007.63
2022-12-15T20:30:57.459Z,96974.78
2022-12-15T20:33:24.805Z,97024.66
2022-12-15T20:35:52.066Z,97007.03
2022-12-15T20:38:32.951Z,97020.66
2022-12-15T20:41:26.967Z,97010.69
2022-12-15T20:43:54.725Z,97013.59
2022-12-15T20:46:24.330Z,97004.16
2022-12-15T20:48:55.466Z,97016.91
2022-12-15T20:51:25.353Z,97011.81
2022-12-15T20:53:54.189Z,97029.75
2022-12-15T20:56:23.495Z,97004.97
2022-12-15T20:58:52.005Z,97028.16
2022-12-15T21:01:28.512Z,97022.44
2022-12-15T21:03:57.209Z,97025.28
2022-12-15T21:06:25.391Z,97007.25
2022-12-15T21:08:53.273Z,97019.72
2022-12-15T21:11:26.718Z,97015.63
2022-12-15T21:13:56.795Z,97049.06
2022-12-15T21:16:27.604Z,97047.25
2022-12-15T21:19:19.125Z,96988.38
2022-12-15T21:21:51.769Z,97030.66
2022-12-15T21:24:22.977Z,97039.38
2022-12-15T21:26:51.216Z,96997.00
2022-12-15T21:29:21.666Z,97024.63
2022-12-15T21:31:48.595Z,97042.13
2022-12-15T21:34:15.856Z,97051.06
2022-12-15T21:36:45.700Z,97049.47
2022-12-15T21:39:22.063Z,97034.16
2022-12-15T21:41:49.225Z,97047.22
2022-12-15T21:44:18.397Z,97031.97
2022-12-15T21:46:45.417Z,97051.41
2022-12-15T21:49:20.569Z,97046.13
2022-12-15T21:51:51.930Z,97059.28
2022-12-15T21:54:20.300Z,97056.94
2022-12-15T21:56:48.551Z,97054.22
2022-12-15T21:59:27.196Z,97056.63
2022-12-15T22:01:55.342Z,97053.78
2022-12-15T22:04:35.330Z,97055.56
2022-12-15T22:07:02.561Z,97040.00
2022-12-15T22:09:29.511Z,97049.41
2022-12-15T22:11:56.819Z,97053.56
2022-12-15T22:14:33.058Z,97038.22
2022-12-15T22:17:02.219Z,97070.22
2022-12-15T22:19:29.215Z,97054.22
2022-12-15T22:21:56.038Z,97058.16
2022-12-15T22:24:22.918Z,97062.44
2022-12-15T22:26:49.832Z,97064.56
2022-12-15T22:29:19.590Z,97057.47
2022-12-15T22:31:47.133Z,97055.59
2022-12-15T22:34:16.706Z,97059.19
2022-12-15T22:36:43.689Z,97042.00
2022-12-15T22:39:11.369Z,97043.66
2022-12-15T22:41:41.915Z,97052.56
2022-12-15T22:44:27.091Z,97028.94
2022-12-15T22:46:57.771Z,97043.47
2022-12-15T22:49:34.632Z,97006.16
2022-12-15T22:52:01.534Z,97033.81
2022-12-15T22:54:29.660Z,97029.34
2022-12-15T22:57:06.324Z,97013.06
2022-12-15T22:59:37.416Z,97003.94
2022-12-15T23:02:05.159Z,97029.78
2022-12-15T23:04:32.368Z,97037.72
2022-12-15T23:07:02.425Z,97034.25
2022-12-15T23:09:29.855Z,97048.03
2022-12-15T23:11:56.855Z,97045.72
2022-12-15T23:14:43.626Z,97045.66
2022-12-15T23:17:11.822Z,97038.72
2022-12-15T23:19:46.095Z,97028.22
2022-12-15T23:22:13.544Z,97023.78
2022-12-15T23:24:40.806Z,97018.31
2022-12-15T23:27:11.667Z,97035.72
2022-12-15T23:29:38.587Z,97021.22
2022-12-15T23:32:06.106Z,97026.28
2022-12-15T23:34:33.028Z,97017.53
2022-12-15T23:37:00.017Z,96981.78
2022-12-15T23:39:27.100Z,97015.56
2022-12-15T23:41:54.100Z,97028.06
2022-12-15T23:44:21.593Z,97011.25
2022-12-15T23:46:48.642Z,97012.47
2022-12-15T23:49:15.736Z,97004.84
2022-12-15T23:51:42.634Z,96994.75
2022-12-15T23:54:10.200Z,96999.59
2022-12-15T23:56:39.480Z,96997.75
2022-12-15T23:59:06.591Z,97011.78
